Post, Oregon
Current Conditions -  °F | °C
As of 1:35 PM on Saturday 25 Oct 2014 (Local Time) from KS39 Reporting Station
Few Clouds Few Clouds  
Wind Chill: 66°   Ceiling: Unl
Heat Index: 66°   Visibility: 10mi
Dew Point: 36°   Wind: 35mph
Humidity: 32%   Direction: 180°S
Pressure: 29.54"   Gusts: 46mph
Location:  44.16°N, 120.49°W
Report Text: KS39 252035Z AUTO 18030G40KT 10SM FEW070 19/02 A2954 RMK AO2
Loading
Personal Weather Stations






























Interactive Weather Map
Tropical Storm Tracking
New forecast layout! Learn more

10-Day Weather Forecast

Advertisements
Track Severe Weather on mobile